Latest Weather Observations for Dum In Mirrie

IDD60901

Issued at 8:11 pm CST Monday 27 April 2015 (issued every 10 minutes, with the page automatically refreshed every 10 minutes)

About weather observations | Map of Darwin area stations | Latest observations for Darwin area | Other Formats
Station Details ID: 014277 Name: DUM IN MIRRIE AIRSTRIP Lat: -12.63 Lon: 130.37 Height: 3.5 m
Data from the previous 72 hours. | See also: Recent months at Dum In Mirrie
Date/Time
CST
Tmp

°C
App
Tmp
°C
Dew
Point
°C
Rel
Hum
%
Delta-T

°C
Wind Press
QNH
hPa
Press
MSL
hPa
Rain
since
9 am
mm
Dir
 
Spd
km/h
Gust
km/h
Spd
kts
Gust
kts
27/08:00pm 21.9 24.4 17.3 75 2.8 CALM 0 0 0 0 1013.2 1013.2 0.0
27/07:30pm - - - - - CALM 0 0 0 0 1012.9 1012.9 0.0
27/07:00pm - - - - - NNW 2 2 1 1 1012.6 1012.6 0.0
27/06:30pm - - - - - CALM 0 2 0 1 1012.3 1012.3 0.0
27/06:00pm - - - - - CALM 0 2 0 1 1011.8 1011.8 0.0
27/05:30pm - - - - - ENE 4 7 2 4 1011.4 1011.4 0.0
27/05:00pm - - - - - E 6 9 3 5 1010.9 1010.9 0.0
27/04:30pm - - - - - E 7 13 4 7 1010.7 1010.7 0.0
27/04:00pm 31.2 30.0 11.6 30 11.4 ENE 9 13 5 7 1010.6 1010.6 0.0
27/03:30pm 30.9 30.1 12.8 33 10.7 ENE 9 15 5 8 1010.5 1010.5 0.0
27/03:00pm 31.8 30.9 12.6 31 11.4 ENE 9 15 5 8 1010.5 1010.5 0.0
27/02:30pm 32.4 31.7 13.1 31 11.6 ENE 9 15 5 8 1010.8 1010.8 0.0
27/02:00pm 31.5 30.5 13.3 33 10.9 ENE 11 17 6 9 1011.3 1011.3 0.0
27/01:30pm 30.1 28.4 11.1 31 10.9 ENE 11 17 6 9 1011.8 1011.8 0.0
27/01:00pm 30.9 29.2 11.3 30 11.4 ESE 11 24 6 13 1012.2 1012.2 0.0
27/12:30pm 29.8 27.9 11.8 33 10.5 SE 13 22 7 12 1012.3 1012.3 0.0
27/12:00pm 29.3 27.7 12.7 36 9.8 ESE 13 24 7 13 1012.7 1012.7 0.0
27/11:30am 28.4 26.3 12.3 37 9.4 ESE 15 22 8 12 1013.2 1013.2 0.0
27/11:00am 27.4 25.5 13.0 41 8.4 ESE 15 24 8 13 1013.6 1013.6 0.0
27/10:30am 26.6 24.8 13.3 43 7.8 ESE 15 24 8 13 1013.9 1013.9 0.0
27/10:00am 25.3 23.6 13.5 48 6.9 ESE 15 24 8 13 1014.1 1014.1 0.0
27/09:30am 23.5 21.6 11.9 48 6.6 ESE 13 24 7 13 1014.0 1014.0 0.0
27/09:00am 22.9 20.1 11.3 48 6.5 ESE 17 26 9 14 1013.9 1013.9 0.0
27/08:30am 22.5 20.3 10.9 48 6.4 ESE 13 24 7 13 1013.9 1013.9 0.0
27/08:00am 22.3 21.5 11.7 51 5.9 SE 7 13 4 7 1013.4 1013.4 0.0
27/07:30am 21.8 21.0 11.8 53 5.6 ESE 7 15 4 8 1012.8 1012.8 0.0
27/07:00am 21.4 21.0 12.3 56 5.1 ESE 6 11 3 6 1012.5 1012.5 0.0
27/06:30am 22.2 21.6 11.6 51 5.9 SE 6 11 3 6 1012.2 1012.2 0.0
27/06:00am 22.5 21.8 11.9 51 6.0 ESE 7 15 4 8 1011.9 1011.9 0.0
27/05:30am 22.6 21.5 12.0 51 6.0 ESE 9 15 5 8 1011.9 1011.9 0.0
27/05:00am 22.8 21.3 11.8 50 6.2 ESE 11 19 6 10 1011.8 1011.8 0.0
27/04:30am 23.2 22.0 11.6 48 6.5 ESE 9 17 5 9 1011.8 1011.8 0.0
27/04:00am 23.3 22.2 12.0 49 6.4 ESE 9 15 5 8 1011.8 1011.8 0.0
27/03:30am 23.4 22.7 12.1 49 6.4 ESE 7 15 4 8 1011.7 1011.7 0.0
27/03:00am 23.0 22.7 12.6 52 5.9 ESE 6 7 3 4 1011.9 1011.9 0.0
27/02:30am 23.3 22.7 12.3 50 6.3 ESE 7 11 4 6 1012.0 1012.0 0.0
27/02:00am 23.3 23.1 12.9 52 6.0 ESE 6 9 3 5 1012.2 1012.2 0.0
27/01:30am 23.3 23.3 13.5 54 5.7 ESE 6 9 3 5 1012.3 1012.3 0.0
27/01:00am 23.2 23.2 13.7 55 5.5 ESE 6 9 3 5 1012.5 1012.5 0.0
27/12:30am 23.5 23.6 13.9 55 5.6 ESE 6 7 3 4 1012.9 1012.9 0.0
27/12:00am 22.4 22.7 14.5 61 4.6 ESE 6 9 3 5 1013.1 1013.1 0.0
 
Date/Time
CST
Tmp

°C
App
Tmp
°C
Dew
Point
°C
Rel
Hum
%
Delta-T

°C
Wind Press
QNH
hPa
Press
MSL
hPa
Rain
since
9 am
mm
Dir
 
Spd
km/h
Gust
km/h
Spd
kts
Gust
kts
26/11:30pm 21.6 21.9 14.5 64 4.2 ESE 6 9 3 5 1013.2 1013.2 0.0
26/11:00pm 20.6 21.6 15.4 72 3.1 E 4 9 2 5 1013.4 1013.4 0.0
26/10:30pm 21.6 23.5 15.7 69 3.5 CALM 0 0 0 0 1013.6 1013.6 0.0
26/10:00pm 23.3 25.1 17.3 69 3.7 SE 4 6 2 3 1013.7 1013.7 0.0
26/09:30pm 23.3 25.7 18.0 72 3.3 SSE 2 4 1 2 1013.7 1013.7 0.0
26/09:00pm 22.8 25.3 18.1 75 2.9 SSW 2 6 1 3 1013.4 1013.4 0.0
26/08:30pm 22.4 24.6 17.5 74 3.0 S 2 2 1 1 1013.0 1013.0 0.0
26/08:00pm 23.3 25.5 17.5 70 3.6 S 2 6 1 3 1012.6 1012.6 0.0
26/07:30pm 22.9 25.2 16.7 68 3.8 CALM 0 0 0 0 1012.1 1012.1 0.0
26/07:00pm 23.9 26.1 16.4 63 4.6 CALM 0 0 0 0 1011.5 1011.5 0.0
26/06:30pm 26.4 28.4 16.1 53 6.3 CALM 0 0 0 0 1011.2 1011.2 0.0
26/06:00pm 30.5 30.9 13.7 35 10.1 E 4 7 2 4 1010.7 1010.7 0.0
26/05:30pm 31.4 31.1 12.7 32 11.1 E 6 9 3 5 1010.5 1010.5 0.0
26/05:00pm 31.9 31.4 12.7 31 11.4 ESE 7 13 4 7 1010.2 1010.2 0.0
26/04:30pm 32.3 31.5 13.0 31 11.6 ESE 9 13 5 7 1010.1 1010.1 0.0
26/04:00pm 32.4 31.0 12.1 29 12.0 E 11 19 6 10 1010.1 1010.1 0.0
26/03:30pm 32.3 29.9 11.5 28 12.2 E 15 26 8 14 1010.3 1010.3 0.0
26/03:00pm 32.2 31.0 12.9 31 11.5 E 11 19 6 10 1010.4 1010.4 0.0
26/02:30pm 32.2 30.6 12.9 31 11.5 E 13 24 7 13 1010.8 1010.8 0.0
26/02:00pm 31.5 29.7 13.3 33 10.9 E 15 20 8 11 1011.0 1011.0 0.0
26/01:30pm 31.5 30.2 13.7 33 10.7 E 13 20 7 11 1011.2 1011.2 0.0
26/01:00pm 31.2 29.5 13.5 34 10.6 E 15 24 8 13 1011.7 1011.7 0.0
26/12:30pm 31.0 29.6 13.3 34 10.6 E 13 19 7 10 1012.1 1012.1 0.0
26/12:00pm 30.0 28.6 13.3 36 9.9 ESE 13 22 7 12 1012.6 1012.6 0.0
26/11:30am 29.7 28.9 16.1 43 8.4 ESE 15 20 8 11 1013.0 1013.0 0.0
26/11:00am 28.9 28.0 15.8 45 8.1 ESE 15 28 8 15 1013.5 1013.5 0.0
26/10:30am 28.2 27.5 15.5 46 7.8 ESE 13 24 7 13 1013.6 1013.6 0.0
26/10:00am 27.4 26.1 14.8 46 7.6 ESE 15 26 8 14 1013.5 1013.5 0.0
26/09:30am 26.1 24.4 13.6 46 7.4 ESE 15 24 8 13 1013.3 1013.3 0.0
26/09:00am 25.1 22.7 12.7 46 7.2 ESE 17 28 9 15 1012.9 1012.9 0.0
26/08:30am 24.5 22.8 12.5 47 6.9 ESE 13 24 7 13 1012.6 1012.6 0.0
26/08:00am 24.0 22.7 12.6 49 6.5 ESE 11 19 6 10 1012.3 1012.3 0.0
26/07:30am 23.6 22.5 13.2 52 6.0 SE 11 17 6 9 1011.9 1011.9 0.0
26/07:00am 23.4 23.4 13.6 54 5.7 SE 6 11 3 6 1011.4 1011.4 0.0
26/06:30am 23.0 23.5 15.6 63 4.4 ESE 7 13 4 7 1011.0 1011.0 0.0
26/06:00am 22.6 24.0 17.9 75 2.9 ESE 7 9 4 5 1010.9 1010.9 0.0
26/05:30am 21.9 23.6 18.1 79 2.4 E 6 9 3 5 1010.7 1010.7 0.0
26/05:00am 21.6 23.8 19.2 86 1.5 E 6 7 3 4 1010.7 1010.7 0.0
26/04:30am 21.7 25.1 20.9 95 0.5 ESE 4 6 2 3 1010.5 1010.5 0.0
26/04:00am 22.5 26.5 22.0 97 0.3 ESE 4 6 2 3 1010.4 1010.4 0.0
26/03:30am 22.2 26.5 21.2 94 0.7 CALM 0 4 0 2 1010.4 1010.4 0.0
26/03:00am 22.8 27.5 22.0 95 0.5 CALM 0 0 0 0 1010.5 1010.5 0.0
26/02:30am 23.4 28.5 22.6 95 0.5 CALM 0 0 0 0 1010.6 1010.6 0.0
26/02:00am 23.7 28.4 22.7 94 0.7 SE 2 4 1 2 1010.9 1010.9 0.0
26/01:30am 24.7 30.2 24.0 96 0.5 SSE 2 4 1 2 1011.1 1011.1 0.0
26/01:00am 24.7 29.8 24.0 96 0.5 SSE 4 4 2 2 1011.5 1011.5 0.0
26/12:30am 24.2 29.6 23.3 95 0.6 CALM 0 0 0 0 1011.5 1011.5 0.0
26/12:00am 24.3 29.7 23.3 94 0.7 CALM 0 0 0 0 1011.5 1011.5 0.0
 
Date/Time
CST
Tmp

°C
App
Tmp
°C
Dew
Point
°C
Rel
Hum
%
Delta-T

°C
Wind Press
QNH
hPa
Press
MSL
hPa
Rain
since
9 am
mm
Dir
 
Spd
km/h
Gust
km/h
Spd
kts
Gust
kts
25/11:30pm 24.4 29.4 23.2 93 0.8 SE 2 2 1 1 1011.5 1011.5 0.0
25/11:00pm 24.4 29.2 22.8 91 1.1 SSE 2 4 1 2 1011.7 1011.7 0.0
25/10:30pm 24.6 29.9 23.0 91 1.1 CALM 0 2 0 1 1011.9 1011.9 0.0
25/10:00pm 24.7 29.9 22.9 90 1.2 CALM 0 0 0 0 1011.9 1011.9 0.0
25/09:30pm 24.9 30.2 23.0 89 1.3 CALM 0 0 0 0 1011.6 1011.6 0.0
25/09:00pm 25.3 30.7 23.2 88 1.4 CALM 0 0 0 0 1011.4 1011.4 0.0
25/08:30pm 25.7 31.0 23.0 85 1.8 CALM 0 0 0 0 1011.1 1011.1 0.0
25/08:00pm 26.1 31.4 23.0 83 2.1 CALM 0 0 0 0 1010.5 1010.5 0.0
25/07:30pm 27.0 32.3 23.0 79 2.7 CALM 0 0 0 0 1010.1 1010.1 0.0
25/07:00pm 28.0 32.5 22.9 74 3.5 NNE 4 6 2 3 1009.6 1009.6 0.0
25/06:30pm 28.9 33.4 22.9 70 4.1 NNE 4 7 2 4 1009.2 1009.2 0.0
25/06:00pm 29.7 33.6 22.9 67 4.7 N 7 13 4 7 1008.9 1008.9 0.0
25/05:30pm 30.6 35.0 23.8 67 4.7 N 7 15 4 8 1008.6 1008.6 0.0
25/05:00pm 30.4 34.3 24.3 70 4.3 N 11 20 6 11 1008.2 1008.2 0.0
25/04:30pm 30.8 34.3 24.2 68 4.6 N 13 20 7 11 1007.9 1007.9 0.0
25/04:00pm 31.2 34.4 24.3 66 4.8 N 15 24 8 13 1008.0 1008.0 0.0
25/03:30pm 31.5 34.8 23.9 64 5.3 N 13 20 7 11 1008.0 1008.0 0.0
25/03:00pm 31.7 35.3 23.8 63 5.5 N 11 19 6 10 1008.2 1008.2 0.0
25/02:30pm 31.5 34.8 23.9 64 5.3 N 13 22 7 12 1008.6 1008.6 0.0
25/02:00pm 32.8 34.4 20.0 47 8.5 NE 11 20 6 11 1008.9 1008.9 0.0
25/01:30pm 32.4 34.0 20.0 48 8.2 NE 11 20 6 11 1009.2 1009.2 0.0
25/01:00pm 32.2 34.4 20.5 50 7.8 NE 9 19 5 10 1009.3 1009.3 0.0
25/12:30pm 32.0 34.2 21.2 52 7.3 E 11 19 6 10 1010.0 1010.0 0.0
25/12:00pm 31.7 34.3 21.2 53 7.1 E 9 17 5 9 1010.2 1010.2 0.0
25/11:30am 31.1 32.4 20.1 52 7.3 E 13 19 7 10 1010.5 1010.5 0.0
25/11:00am 31.1 31.9 19.8 51 7.4 E 15 20 8 11 1010.7 1010.7 0.0
25/10:30am 30.6 31.0 19.0 50 7.5 ESE 15 22 8 12 1010.8 1010.8 0.0
25/10:00am 29.8 30.4 17.6 48 7.7 ESE 11 19 6 10 1010.8 1010.8 0.0
25/09:30am 29.0 29.1 17.5 49 7.3 ESE 13 20 7 11 1010.8 1010.8 0.0
25/09:00am 28.0 29.3 18.4 56 6.1 ESE 9 15 5 8 1010.5 1010.5 0.0
25/08:30am 26.9 28.8 19.0 62 5.1 ESE 7 13 4 7 1010.4 1010.4 0.0
25/08:00am 26.2 28.1 18.9 64 4.7 ESE 7 13 4 7 1010.1 1010.1 0.0
25/07:30am 25.2 26.6 17.9 64 4.6 ESE 7 9 4 5 1010.0 1010.0 0.0
25/07:00am 25.0 26.3 17.5 63 4.7 ESE 7 11 4 6 1009.6 1009.6 0.0
25/06:30am 25.3 26.4 17.2 61 5.0 E 7 11 4 6 1009.2 1009.2 0.0
25/06:00am 25.3 26.8 17.5 62 4.9 E 6 9 3 5 1008.9 1008.9 0.0
25/05:30am 24.7 27.3 19.3 72 3.5 E 4 6 2 3 1008.9 1008.9 0.0
25/05:00am 24.2 27.2 20.1 78 2.7 SE 4 7 2 4 1008.9 1008.9 0.0
25/04:30am 23.6 26.6 20.1 81 2.3 SSW 4 4 2 2 1009.0 1009.0 0.0
25/04:00am 24.2 27.7 20.3 79 2.5 S 2 6 1 3 1009.2 1009.2 0.0
25/03:30am 25.4 29.3 21.1 77 2.8 SSE 2 6 1 3 1009.4 1009.4 0.0
25/03:00am 26.1 30.3 21.7 77 2.9 S 2 6 1 3 1009.4 1009.4 0.0
25/02:30am 26.6 30.8 21.8 75 3.2 S 2 4 1 2 1009.5 1009.5 0.0
25/02:00am 27.1 31.1 22.1 74 3.4 S 4 7 2 4 1009.5 1009.5 0.0
25/01:30am 27.8 32.1 22.7 74 3.5 S 4 6 2 3 1009.7 1009.7 0.0
25/01:00am 28.0 32.2 22.5 72 3.7 SSW 4 6 2 3 1009.9 1009.9 0.0
25/12:30am 28.5 32.2 21.5 66 4.7 S 4 6 2 3 1010.3 1010.3 0.0
25/12:00am 29.1 32.1 20.8 61 5.5 SSW 6 9 3 5 1010.4 1010.4 0.0
 
Date/Time
CST
Tmp

°C
App
Tmp
°C
Dew
Point
°C
Rel
Hum
%
Delta-T

°C
Wind Press
QNH
hPa
Press
MSL
hPa
Rain
since
9 am
mm
Dir
 
Spd
km/h
Gust
km/h
Spd
kts
Gust
kts
24/11:30pm 29.1 32.6 21.1 62 5.3 SSW 4 6 2 3 1010.8 1010.8 0.0
24/11:00pm 28.8 32.5 20.8 62 5.3 WSW 2 4 1 2 1010.8 1010.8 0.0
24/10:30pm 29.2 33.5 21.2 62 5.3 CALM 0 4 0 2 1010.8 1010.8 0.0
24/10:00pm 28.6 31.7 21.1 64 5.0 W 6 9 3 5 1010.9 1010.9 0.0
24/09:30pm 27.6 31.6 21.4 69 4.1 WNW 2 4 1 2 1010.7 1010.7 0.0
24/09:00pm 28.6 31.6 20.1 60 5.6 WNW 4 7 2 4 1010.7 1010.7 0.0
24/08:30pm 28.8 31.6 19.7 58 5.9 WNW 4 7 2 4 1010.1 1010.1 0.0

Latest Capital City Observations: Canberra | Sydney | Melbourne | Brisbane | Adelaide | Perth | Hobart | Darwin

Other Formats:

Comma delimited format used in spreadsheet applications
http://www.bom.gov.au/fwo/IDD60901/IDD60901.94116.axf

JavaScript Object Notation format (JSON) in row-major order
http://www.bom.gov.au/fwo/IDD60901/IDD60901.94116.json